sensor_id;sensor_type;location;lat;lon;timestamp;pressure;altitude;pressure_sealevel;temperature;humidity
64841;BME280;51307;52.162;7.560;2024-01-30T00:01:10;102248.00;;;6.01;77.86
64841;BME280;51307;52.162;7.560;2024-01-30T00:03:36;102241.28;;;5.95;77.67
64841;BME280;51307;52.162;7.560;2024-01-30T00:06:03;102241.56;;;6.05;77.87
64841;BME280;51307;52.162;7.560;2024-01-30T00:08:28;102242.59;;;6.02;78.02
64841;BME280;51307;52.162;7.560;2024-01-30T00:10:54;102248.19;;;5.98;77.84
64841;BME280;51307;52.162;7.560;2024-01-30T00:13:19;102245.25;;;6.02;77.78
64841;BME280;51307;52.162;7.560;2024-01-30T00:15:45;102242.41;;;5.91;77.61
64841;BME280;51307;52.162;7.560;2024-01-30T00:18:11;102239.28;;;5.84;77.65
64841;BME280;51307;52.162;7.560;2024-01-30T00:20:36;102244.09;;;5.78;77.81
64841;BME280;51307;52.162;7.560;2024-01-30T00:23:02;102242.59;;;5.73;77.71
64841;BME280;51307;52.162;7.560;2024-01-30T00:25:28;102233.78;;;5.73;77.53
64841;BME280;51307;52.162;7.560;2024-01-30T00:27:53;102234.97;;;5.67;77.34
64841;BME280;51307;52.162;7.560;2024-01-30T00:30:20;102232.53;;;5.64;77.20
64841;BME280;51307;52.162;7.560;2024-01-30T00:32:45;102227.31;;;5.63;77.38
64841;BME280;51307;52.162;7.560;2024-01-30T00:35:11;102222.94;;;5.62;77.47
64841;BME280;51307;52.162;7.560;2024-01-30T00:37:36;102221.16;;;5.62;77.46
64841;BME280;51307;52.162;7.560;2024-01-30T00:40:02;102225.41;;;5.65;77.45
64841;BME280;51307;52.162;7.560;2024-01-30T00:42:28;102226.53;;;5.61;77.48
64841;BME280;51307;52.162;7.560;2024-01-30T00:44:54;102220.56;;;5.57;77.28
64841;BME280;51307;52.162;7.560;2024-01-30T00:47:19;102227.50;;;5.60;77.68
64841;BME280;51307;52.162;7.560;2024-01-30T00:49:45;102224.75;;;5.61;77.42
64841;BME280;51307;52.162;7.560;2024-01-30T00:52:11;102216.50;;;5.66;77.32
64841;BME280;51307;52.162;7.560;2024-01-30T00:54:37;102220.03;;;5.66;77.63
64841;BME280;51307;52.162;7.560;2024-01-30T00:57:03;102214.31;;;5.72;77.64
64841;BME280;51307;52.162;7.560;2024-01-30T00:59:28;102221.91;;;5.79;77.88
64841;BME280;51307;52.162;7.560;2024-01-30T01:01:54;102222.31;;;5.87;78.52
64841;BME280;51307;52.162;7.560;2024-01-30T01:04:19;102223.03;;;5.89;79.07
64841;BME280;51307;52.162;7.560;2024-01-30T01:06:47;102216.31;;;5.98;79.06
64841;BME280;51307;52.162;7.560;2024-01-30T01:09:12;102221.53;;;5.99;79.62
64841;BME280;51307;52.162;7.560;2024-01-30T01:11:38;102214.25;;;6.03;79.71
64841;BME280;51307;52.162;7.560;2024-01-30T01:14:04;102222.09;;;6.04;80.41
64841;BME280;51307;52.162;7.560;2024-01-30T01:16:30;102220.88;;;6.10;79.99
64841;BME280;51307;52.162;7.560;2024-01-30T01:18:56;102222.38;;;6.14;80.47
64841;BME280;51307;52.162;7.560;2024-01-30T01:21:21;102218.19;;;6.24;80.56
64841;BME280;51307;52.162;7.560;2024-01-30T01:23:47;102223.63;;;6.23;80.61
64841;BME280;51307;52.162;7.560;2024-01-30T01:26:13;102215.53;;;6.24;81.37
64841;BME280;51307;52.162;7.560;2024-01-30T01:28:41;102212.00;;;6.24;81.06
64841;BME280;51307;52.162;7.560;2024-01-30T01:31:07;102221.69;;;6.39;81.09
64841;BME280;51307;52.162;7.560;2024-01-30T01:33:33;102209.09;;;6.29;80.84
64841;BME280;51307;52.162;7.560;2024-01-30T01:35:59;102209.47;;;6.22;80.88
64841;BME280;51307;52.162;7.560;2024-01-30T01:38:25;102208.25;;;6.28;81.19
64841;BME280;51307;52.162;7.560;2024-01-30T01:40:50;102214.41;;;6.29;81.28
64841;BME280;51307;52.162;7.560;2024-01-30T01:43:16;102215.25;;;6.29;81.68
64841;BME280;51307;52.162;7.560;2024-01-30T01:45:42;102214.66;;;6.38;81.66
64841;BME280;51307;52.162;7.560;2024-01-30T01:48:08;102208.28;;;6.41;81.65
64841;BME280;51307;52.162;7.560;2024-01-30T01:50:36;102208.84;;;6.46;81.38
64841;BME280;51307;52.162;7.560;2024-01-30T01:53:03;102208.53;;;6.51;81.83
64841;BME280;51307;52.162;7.560;2024-01-30T01:55:29;102207.38;;;6.55;81.52
64841;BME280;51307;52.162;7.560;2024-01-30T01:57:56;102198.38;;;6.57;82.07
64841;BME280;51307;52.162;7.560;2024-01-30T02:00:22;102195.06;;;6.54;81.98
64841;BME280;51307;52.162;7.560;2024-01-30T02:02:49;102200.53;;;6.65;82.04
64841;BME280;51307;52.162;7.560;2024-01-30T02:05:16;102197.53;;;6.57;82.22
64841;BME280;51307;52.162;7.560;2024-01-30T02:07:42;102197.47;;;6.71;81.97
64841;BME280;51307;52.162;7.560;2024-01-30T02:10:08;102194.63;;;6.74;81.75
64841;BME280;51307;52.162;7.560;2024-01-30T02:12:35;102192.28;;;6.70;81.93
64841;BME280;51307;52.162;7.560;2024-01-30T02:15:00;102194.94;;;6.70;82.22
64841;BME280;51307;52.162;7.560;2024-01-30T02:17:26;102190.69;;;6.53;82.48
64841;BME280;51307;52.162;7.560;2024-01-30T02:19:52;102190.50;;;6.56;82.41
64841;BME280;51307;52.162;7.560;2024-01-30T02:22:19;102186.88;;;6.57;82.47
64841;BME280;51307;52.162;7.560;2024-01-30T02:24:45;102186.56;;;6.62;82.40
64841;BME280;51307;52.162;7.560;2024-01-30T02:27:10;102179.00;;;6.55;82.57
64841;BME280;51307;52.162;7.560;2024-01-30T02:29:36;102180.06;;;6.53;82.65
64841;BME280;51307;52.162;7.560;2024-01-30T02:32:01;102179.69;;;6.59;82.77
64841;BME280;51307;52.162;7.560;2024-01-30T02:34:27;102177.50;;;6.51;82.90
64841;BME280;51307;52.162;7.560;2024-01-30T02:36:52;102174.59;;;6.69;82.53
64841;BME280;51307;52.162;7.560;2024-01-30T02:39:18;102172.13;;;6.66;82.03
64841;BME280;51307;52.162;7.560;2024-01-30T02:41:43;102178.34;;;6.52;82.71
64841;BME280;51307;52.162;7.560;2024-01-30T02:44:09;102179.75;;;6.57;82.55
64841;BME280;51307;52.162;7.560;2024-01-30T02:46:34;102173.78;;;6.54;82.56
64841;BME280;51307;52.162;7.560;2024-01-30T02:49:00;102174.25;;;6.61;82.69
64841;BME280;51307;52.162;7.560;2024-01-30T02:51:25;102167.56;;;6.68;82.51
64841;BME280;51307;52.162;7.560;2024-01-30T02:53:51;102163.28;;;6.52;82.80
64841;BME280;51307;52.162;7.560;2024-01-30T02:56:16;102162.19;;;6.55;82.52
64841;BME280;51307;52.162;7.560;2024-01-30T02:58:42;102156.56;;;6.60;82.23
64841;BME280;51307;52.162;7.560;2024-01-30T03:01:07;102147.94;;;6.56;82.56
64841;BME280;51307;52.162;7.560;2024-01-30T03:03:33;102146.69;;;6.62;82.54
64841;BME280;51307;52.162;7.560;2024-01-30T03:06:01;102152.91;;;6.48;82.87
64841;BME280;51307;52.162;7.560;2024-01-30T03:08:27;102152.91;;;6.48;82.66
64841;BME280;51307;52.162;7.560;2024-01-30T03:10:52;102145.28;;;6.56;82.72
64841;BME280;51307;52.162;7.560;2024-01-30T03:13:18;102146.09;;;6.44;82.80
64841;BME280;51307;52.162;7.560;2024-01-30T03:15:44;102146.31;;;6.40;82.84
64841;BME280;51307;52.162;7.560;2024-01-30T03:18:09;102140.31;;;6.37;82.99
64841;BME280;51307;52.162;7.560;2024-01-30T03:20:34;102134.91;;;6.38;82.82
64841;BME280;51307;52.162;7.560;2024-01-30T03:23:00;102140.09;;;6.40;82.95
64841;BME280;51307;52.162;7.560;2024-01-30T03:25:26;102133.19;;;6.37;82.81
64841;BME280;51307;52.162;7.560;2024-01-30T03:27:51;102132.13;;;6.40;82.85
64841;BME280;51307;52.162;7.560;2024-01-30T03:30:17;102120.00;;;6.36;82.95
64841;BME280;51307;52.162;7.560;2024-01-30T03:32:43;102119.16;;;6.35;82.79
64841;BME280;51307;52.162;7.560;2024-01-30T03:35:09;102119.72;;;6.40;82.80
64841;BME280;51307;52.162;7.560;2024-01-30T03:37:35;102112.03;;;6.36;82.81
64841;BME280;51307;52.162;7.560;2024-01-30T03:40:01;102115.72;;;6.33;82.86
64841;BME280;51307;52.162;7.560;2024-01-30T03:42:27;102110.97;;;6.38;82.41
64841;BME280;51307;52.162;7.560;2024-01-30T03:44:53;102111.41;;;6.45;82.30
64841;BME280;51307;52.162;7.560;2024-01-30T03:47:21;102113.00;;;6.35;82.70
64841;BME280;51307;52.162;7.560;2024-01-30T03:49:46;102112.22;;;6.33;82.70
64841;BME280;51307;52.162;7.560;2024-01-30T03:52:12;102110.47;;;6.46;82.39
64841;BME280;51307;52.162;7.560;2024-01-30T03:54:38;102109.41;;;6.49;82.21
64841;BME280;51307;52.162;7.560;2024-01-30T03:57:03;102108.53;;;6.35;82.36
64841;BME280;51307;52.162;7.560;2024-01-30T03:59:29;102112.38;;;6.44;82.08
64841;BME280;51307;52.162;7.560;2024-01-30T04:01:55;102112.81;;;6.51;81.93
64841;BME280;51307;52.162;7.560;2024-01-30T04:04:20;102110.09;;;6.52;81.29
64841;BME280;51307;52.162;7.560;2024-01-30T04:06:46;102104.88;;;6.64;81.13
64841;BME280;51307;52.162;7.560;2024-01-30T04:09:13;102104.38;;;6.44;81.89
64841;BME280;51307;52.162;7.560;2024-01-30T04:11:39;102107.56;;;6.36;82.20
64841;BME280;51307;52.162;7.560;2024-01-30T04:14:05;102100.19;;;6.27;82.68
64841;BME280;51307;52.162;7.560;2024-01-30T04:16:31;102098.69;;;6.23;82.67
64841;BME280;51307;52.162;7.560;2024-01-30T04:18:58;102100.31;;;6.26;82.73
64841;BME280;51307;52.162;7.560;2024-01-30T04:21:23;102101.34;;;6.23;82.53
64841;BME280;51307;52.162;7.560;2024-01-30T04:23:50;102099.66;;;6.22;82.50
64841;BME280;51307;52.162;7.560;2024-01-30T04:26:16;102093.72;;;6.31;82.61
64841;BME280;51307;52.162;7.560;2024-01-30T04:28:43;102094.31;;;6.22;82.64
64841;BME280;51307;52.162;7.560;2024-01-30T04:31:09;102089.97;;;6.21;82.64
64841;BME280;51307;52.162;7.560;2024-01-30T04:33:35;102087.19;;;6.22;82.66
64841;BME280;51307;52.162;7.560;2024-01-30T04:36:00;102093.16;;;6.26;82.80
64841;BME280;51307;52.162;7.560;2024-01-30T04:38:26;102089.22;;;6.19;82.92
64841;BME280;51307;52.162;7.560;2024-01-30T04:40:51;102086.94;;;6.13;82.83
64841;BME280;51307;52.162;7.560;2024-01-30T04:43:17;102084.88;;;6.03;82.90
64841;BME280;51307;52.162;7.560;2024-01-30T04:45:44;102081.38;;;6.03;82.59
64841;BME280;51307;52.162;7.560;2024-01-30T04:48:10;102086.25;;;5.96;82.54
64841;BME280;51307;52.162;7.560;2024-01-30T04:50:35;102082.63;;;5.97;82.82
64841;BME280;51307;52.162;7.560;2024-01-30T04:53:01;102087.94;;;5.97;82.76
64841;BME280;51307;52.162;7.560;2024-01-30T04:55:27;102094.94;;;5.98;82.61
64841;BME280;51307;52.162;7.560;2024-01-30T04:57:52;102086.25;;;5.96;82.28
64841;BME280;51307;52.162;7.560;2024-01-30T05:00:18;102087.66;;;5.87;82.48
64841;BME280;51307;52.162;7.560;2024-01-30T05:02:43;102084.53;;;5.95;82.30
64841;BME280;51307;52.162;7.560;2024-01-30T05:05:09;102085.19;;;5.99;82.37
64841;BME280;51307;52.162;7.560;2024-01-30T05:07:35;102080.50;;;6.02;82.16
64841;BME280;51307;52.162;7.560;2024-01-30T05:10:00;102077.31;;;5.97;82.58
64841;BME280;51307;52.162;7.560;2024-01-30T05:12:26;102091.34;;;5.99;82.68
64841;BME280;51307;52.162;7.560;2024-01-30T05:14:51;102083.28;;;6.01;82.72
64841;BME280;51307;52.162;7.560;2024-01-30T05:17:17;102089.34;;;6.03;82.96
64841;BME280;51307;52.162;7.560;2024-01-30T05:19:43;102084.97;;;6.02;82.88
64841;BME280;51307;52.162;7.560;2024-01-30T05:22:09;102090.19;;;6.03;82.77
64841;BME280;51307;52.162;7.560;2024-01-30T05:24:35;102085.75;;;6.04;82.87
64841;BME280;51307;52.162;7.560;2024-01-30T05:27:01;102090.88;;;6.07;82.72
64841;BME280;51307;52.162;7.560;2024-01-30T05:29:27;102086.97;;;5.98;83.05
64841;BME280;51307;52.162;7.560;2024-01-30T05:31:53;102080.50;;;6.02;82.81
64841;BME280;51307;52.162;7.560;2024-01-30T05:34:18;102078.63;;;6.04;82.95
64841;BME280;51307;52.162;7.560;2024-01-30T05:36:44;102070.53;;;6.06;83.15
64841;BME280;51307;52.162;7.560;2024-01-30T05:39:09;102082.13;;;6.05;82.99
64841;BME280;51307;52.162;7.560;2024-01-30T05:41:35;102075.63;;;5.96;82.88
64841;BME280;51307;52.162;7.560;2024-01-30T05:44:04;102068.38;;;5.98;82.74
64841;BME280;51307;52.162;7.560;2024-01-30T05:46:30;102062.44;;;5.95;82.82
64841;BME280;51307;52.162;7.560;2024-01-30T05:48:55;102075.06;;;5.91;82.94
64841;BME280;51307;52.162;7.560;2024-01-30T05:51:21;102073.34;;;5.90;83.08
64841;BME280;51307;52.162;7.560;2024-01-30T05:53:46;102081.50;;;5.87;82.93
64841;BME280;51307;52.162;7.560;2024-01-30T05:56:12;102079.31;;;5.94;82.71
64841;BME280;51307;52.162;7.560;2024-01-30T05:58:37;102079.31;;;5.94;82.43
64841;BME280;51307;52.162;7.560;2024-01-30T06:01:06;102084.06;;;5.88;82.68
64841;BME280;51307;52.162;7.560;2024-01-30T06:03:33;102087.28;;;5.94;82.59
64841;BME280;51307;52.162;7.560;2024-01-30T06:05:58;102082.19;;;5.90;82.75
64841;BME280;51307;52.162;7.560;2024-01-30T06:08:24;102080.16;;;5.94;82.76
64841;BME280;51307;52.162;7.560;2024-01-30T06:10:49;102084.03;;;6.03;82.34
64841;BME280;51307;52.162;7.560;2024-01-30T06:13:15;102075.03;;;6.05;82.48
64841;BME280;51307;52.162;7.560;2024-01-30T06:15:40;102076.06;;;6.03;82.43
64841;BME280;51307;52.162;7.560;2024-01-30T06:18:06;102075.59;;;6.11;82.29
64841;BME280;51307;52.162;7.560;2024-01-30T06:20:31;102088.22;;;6.07;82.48
64841;BME280;51307;52.162;7.560;2024-01-30T06:22:57;102073.97;;;6.08;82.76
64841;BME280;51307;52.162;7.560;2024-01-30T06:25:22;102069.72;;;6.05;82.96
64841;BME280;51307;52.162;7.560;2024-01-30T06:27:48;102070.28;;;6.11;82.57
64841;BME280;51307;52.162;7.560;2024-01-30T06:30:14;102073.56;;;6.14;82.79
64841;BME280;51307;52.162;7.560;2024-01-30T06:32:39;102072.06;;;6.10;82.82
64841;BME280;51307;52.162;7.560;2024-01-30T06:35:05;102071.56;;;6.18;82.67
64841;BME280;51307;52.162;7.560;2024-01-30T06:37:31;102071.66;;;6.16;82.82
64841;BME280;51307;52.162;7.560;2024-01-30T06:39:56;102069.34;;;6.24;82.39
64841;BME280;51307;52.162;7.560;2024-01-30T06:42:22;102065.81;;;6.24;82.51
64841;BME280;51307;52.162;7.560;2024-01-30T06:44:47;102071.78;;;6.15;83.07
64841;BME280;51307;52.162;7.560;2024-01-30T06:47:13;102081.44;;;6.16;83.11
64841;BME280;51307;52.162;7.560;2024-01-30T06:49:39;102080.19;;;6.21;83.01
64841;BME280;51307;52.162;7.560;2024-01-30T06:52:08;102075.72;;;6.22;82.83
64841;BME280;51307;52.162;7.560;2024-01-30T06:54:33;102084.84;;;6.18;83.20
64841;BME280;51307;52.162;7.560;2024-01-30T06:56:59;102075.94;;;6.19;83.06
64841;BME280;51307;52.162;7.560;2024-01-30T06:59:25;102085.41;;;6.23;83.00
64841;BME280;51307;52.162;7.560;2024-01-30T07:01:51;102082.19;;;6.18;83.03
64841;BME280;51307;52.162;7.560;2024-01-30T07:04:16;102076.09;;;6.16;83.29
64841;BME280;51307;52.162;7.560;2024-01-30T07:06:43;102080.81;;;6.25;83.13
64841;BME280;51307;52.162;7.560;2024-01-30T07:09:09;102072.28;;;6.20;82.97
64841;BME280;51307;52.162;7.560;2024-01-30T07:11:34;102085.44;;;6.09;82.75
64841;BME280;51307;52.162;7.560;2024-01-30T07:13:59;102084.69;;;6.06;83.00
64841;BME280;51307;52.162;7.560;2024-01-30T07:16:25;102074.03;;;6.06;83.00
64841;BME280;51307;52.162;7.560;2024-01-30T07:18:51;102076.25;;;6.00;82.94
64841;BME280;51307;52.162;7.560;2024-01-30T07:21:16;102072.41;;;5.91;83.18
64841;BME280;51307;52.162;7.560;2024-01-30T07:23:43;102072.00;;;5.97;82.79
64841;BME280;51307;52.162;7.560;2024-01-30T07:26:08;102082.06;;;5.92;82.99
64841;BME280;51307;52.162;7.560;2024-01-30T07:28:35;102074.47;;;6.00;83.04
64841;BME280;51307;52.162;7.560;2024-01-30T07:31:01;102070.75;;;6.03;83.00
64841;BME280;51307;52.162;7.560;2024-01-30T07:33:26;102076.06;;;6.03;82.96
64841;BME280;51307;52.162;7.560;2024-01-30T07:35:52;102076.34;;;5.98;83.09
64841;BME280;51307;52.162;7.560;2024-01-30T07:38:19;102077.31;;;5.97;83.22
64841;BME280;51307;52.162;7.560;2024-01-30T07:40:45;102077.84;;;6.02;83.00
64841;BME280;51307;52.162;7.560;2024-01-30T07:43:10;102087.84;;;5.99;83.05
64841;BME280;51307;52.162;7.560;2024-01-30T07:45:36;102088.59;;;6.01;83.36
64841;BME280;51307;52.162;7.560;2024-01-30T07:48:04;102079.56;;;6.31;82.50
64841;BME280;51307;52.162;7.560;2024-01-30T07:50:30;102091.09;;;6.17;82.83
64841;BME280;51307;52.162;7.560;2024-01-30T07:52:56;102085.78;;;6.17;82.93
64841;BME280;51307;52.162;7.560;2024-01-30T07:55:22;102087.84;;;6.26;83.00
64841;BME280;51307;52.162;7.560;2024-01-30T07:57:54;102083.91;;;6.19;83.23
64841;BME280;51307;52.162;7.560;2024-01-30T08:00:21;102088.91;;;6.23;83.31
64841;BME280;51307;52.162;7.560;2024-01-30T08:02:46;102088.00;;;6.37;83.06
64841;BME280;51307;52.162;7.560;2024-01-30T08:05:12;102091.47;;;6.25;83.36
64841;BME280;51307;52.162;7.560;2024-01-30T08:07:39;102089.16;;;6.33;83.44
64841;BME280;51307;52.162;7.560;2024-01-30T08:10:05;102098.78;;;6.49;83.13
64841;BME280;51307;52.162;7.560;2024-01-30T08:12:31;102090.47;;;6.40;82.97
64841;BME280;51307;52.162;7.560;2024-01-30T08:14:56;102102.19;;;6.51;83.15
64841;BME280;51307;52.162;7.560;2024-01-30T08:17:22;102092.59;;;6.48;83.24
64841;BME280;51307;52.162;7.560;2024-01-30T08:19:47;102099.63;;;6.49;83.31
64841;BME280;51307;52.162;7.560;2024-01-30T08:22:13;102096.16;;;6.62;83.19
64841;BME280;51307;52.162;7.560;2024-01-30T08:24:39;102097.03;;;6.62;83.13
64841;BME280;51307;52.162;7.560;2024-01-30T08:27:07;102091.91;;;6.59;83.48
64841;BME280;51307;52.162;7.560;2024-01-30T08:29:35;102103.22;;;6.76;83.38
64841;BME280;51307;52.162;7.560;2024-01-30T08:32:01;102104.72;;;6.80;83.05
64841;BME280;51307;52.162;7.560;2024-01-30T08:34:27;102095.34;;;6.87;83.01
64841;BME280;51307;52.162;7.560;2024-01-30T08:36:53;102096.41;;;6.71;83.25
64841;BME280;51307;52.162;7.560;2024-01-30T08:39:19;102098.13;;;6.85;83.22
64841;BME280;51307;52.162;7.560;2024-01-30T08:41:45;102094.41;;;6.88;83.20
64841;BME280;51307;52.162;7.560;2024-01-30T08:44:10;102093.88;;;6.83;83.08
64841;BME280;51307;52.162;7.560;2024-01-30T08:46:36;102092.41;;;6.91;83.00
64841;BME280;51307;52.162;7.560;2024-01-30T08:49:02;102089.44;;;6.96;82.84
64841;BME280;51307;52.162;7.560;2024-01-30T08:51:30;102086.78;;;6.96;83.24
64841;BME280;51307;52.162;7.560;2024-01-30T08:53:55;102094.25;;;7.04;83.05
64841;BME280;51307;52.162;7.560;2024-01-30T08:56:21;102098.19;;;7.11;82.70
64841;BME280;51307;52.162;7.560;2024-01-30T08:58:46;102102.34;;;7.15;82.63
64841;BME280;51307;52.162;7.560;2024-01-30T09:01:12;102103.72;;;7.21;82.52
64841;BME280;51307;52.162;7.560;2024-01-30T09:03:38;102112.56;;;7.21;82.64
64841;BME280;51307;52.162;7.560;2024-01-30T09:06:09;102107.25;;;7.21;82.66
64841;BME280;51307;52.162;7.560;2024-01-30T09:08:34;102104.25;;;7.26;82.66
64841;BME280;51307;52.162;7.560;2024-01-30T09:11:00;102096.16;;;7.28;82.74
64841;BME280;51307;52.162;7.560;2024-01-30T09:13:26;102098.50;;;7.32;83.04
64841;BME280;51307;52.162;7.560;2024-01-30T09:15:51;102101.19;;;7.32;82.85
64841;BME280;51307;52.162;7.560;2024-01-30T09:18:25;102101.72;;;7.37;83.12
64841;BME280;51307;52.162;7.560;2024-01-30T09:20:50;102091.06;;;7.37;83.22
64841;BME280;51307;52.162;7.560;2024-01-30T09:23:16;102101.59;;;7.39;83.42
64841;BME280;51307;52.162;7.560;2024-01-30T09:25:42;102101.81;;;7.36;83.52
64841;BME280;51307;52.162;7.560;2024-01-30T09:28:08;102103.94;;;7.44;83.40
64841;BME280;51307;52.162;7.560;2024-01-30T09:30:34;102111.50;;;7.50;83.50
64841;BME280;51307;52.162;7.560;2024-01-30T09:32:59;102111.72;;;7.47;83.40
64841;BME280;51307;52.162;7.560;2024-01-30T09:35:25;102109.38;;;7.55;83.12
64841;BME280;51307;52.162;7.560;2024-01-30T09:37:50;102113.22;;;7.51;83.67
64841;BME280;51307;52.162;7.560;2024-01-30T09:40:17;102102.63;;;7.62;83.57
64841;BME280;51307;52.162;7.560;2024-01-30T09:42:47;102111.28;;;7.66;83.57
64841;BME280;51307;52.162;7.560;2024-01-30T09:45:14;102101.78;;;7.62;83.93
64841;BME280;51307;52.162;7.560;2024-01-30T09:47:44;102102.41;;;7.65;84.05
64841;BME280;51307;52.162;7.560;2024-01-30T09:50:12;102102.94;;;7.70;84.06
64841;BME280;51307;52.162;7.560;2024-01-30T09:52:38;102099.31;;;7.71;84.01
64841;BME280;51307;52.162;7.560;2024-01-30T09:55:05;102098.19;;;7.87;83.93
64841;BME280;51307;52.162;7.560;2024-01-30T09:57:31;102105.19;;;7.77;84.03
64841;BME280;51307;52.162;7.560;2024-01-30T09:59:57;102103.03;;;7.82;84.00
64841;BME280;51307;52.162;7.560;2024-01-30T10:02:23;102102.91;;;7.83;84.00
64841;BME280;51307;52.162;7.560;2024-01-30T10:04:50;102101.63;;;7.89;83.88
64841;BME280;51307;52.162;7.560;2024-01-30T10:07:17;102107.59;;;7.93;83.69
64841;BME280;51307;52.162;7.560;2024-01-30T10:09:43;102097.53;;;7.96;83.76
64841;BME280;51307;52.162;7.560;2024-01-30T10:12:09;102106.06;;;8.01;83.47
64841;BME280;51307;52.162;7.560;2024-01-30T10:14:39;102102.00;;;8.08;83.50
64841;BME280;51307;52.162;7.560;2024-01-30T10:17:04;102099.09;;;8.12;83.35
64841;BME280;51307;52.162;7.560;2024-01-30T10:19:31;102104.84;;;8.18;82.98
64841;BME280;51307;52.162;7.560;2024-01-30T10:21:59;102107.28;;;8.21;82.94
64841;BME280;51307;52.162;7.560;2024-01-30T10:24:26;102105.44;;;8.22;83.03
64841;BME280;51307;52.162;7.560;2024-01-30T10:26:53;102109.38;;;8.29;82.96
64841;BME280;51307;52.162;7.560;2024-01-30T10:29:19;102106.59;;;8.31;83.02
64841;BME280;51307;52.162;7.560;2024-01-30T10:31:44;102103.81;;;8.32;82.77
64841;BME280;51307;52.162;7.560;2024-01-30T10:34:10;102107.94;;;8.36;82.96
64841;BME280;51307;52.162;7.560;2024-01-30T10:36:40;102099.75;;;8.39;82.78
64841;BME280;51307;52.162;7.560;2024-01-30T10:39:08;102100.34;;;8.43;82.88
64841;BME280;51307;52.162;7.560;2024-01-30T10:41:43;102102.06;;;8.44;83.14
64841;BME280;51307;52.162;7.560;2024-01-30T10:44:10;102102.69;;;8.48;82.76
64841;BME280;51307;52.162;7.560;2024-01-30T10:46:38;102097.22;;;8.49;82.85
64841;BME280;51307;52.162;7.560;2024-01-30T10:49:05;102097.50;;;8.57;82.56
64841;BME280;51307;52.162;7.560;2024-01-30T10:51:32;102093.63;;;8.62;82.51
64841;BME280;51307;52.162;7.560;2024-01-30T10:54:00;102105.41;;;8.70;82.50
64841;BME280;51307;52.162;7.560;2024-01-30T10:56:28;102103.50;;;8.72;82.85
64841;BME280;51307;52.162;7.560;2024-01-30T10:58:54;102098.63;;;8.66;83.03
64841;BME280;51307;52.162;7.560;2024-01-30T11:01:24;102103.50;;;8.72;84.08
64841;BME280;51307;52.162;7.560;2024-01-30T11:03:53;102110.31;;;8.76;84.42
64841;BME280;51307;52.162;7.560;2024-01-30T11:06:23;102106.72;;;8.89;84.34
64841;BME280;51307;52.162;7.560;2024-01-30T11:09:05;102100.44;;;9.01;83.78
64841;BME280;51307;52.162;7.560;2024-01-30T11:11:50;102101.19;;;9.15;83.34
64841;BME280;51307;52.162;7.560;2024-01-30T11:14:16;102102.66;;;9.19;83.29
64841;BME280;51307;52.162;7.560;2024-01-30T11:16:48;102106.56;;;9.26;83.33
64841;BME280;51307;52.162;7.560;2024-01-30T11:19:14;102106.06;;;9.32;83.13
64841;BME280;51307;52.162;7.560;2024-01-30T11:21:42;102102.69;;;9.41;82.54
64841;BME280;51307;52.162;7.560;2024-01-30T11:24:08;102106.47;;;9.50;82.49
64841;BME280;51307;52.162;7.560;2024-01-30T11:26:33;102091.03;;;9.42;82.81
64841;BME280;51307;52.162;7.560;2024-01-30T11:29:03;102105.50;;;9.51;82.63
64841;BME280;51307;52.162;7.560;2024-01-30T11:31:29;102102.94;;;9.50;82.97
64841;BME280;51307;52.162;7.560;2024-01-30T11:33:56;102107.44;;;9.60;82.29
64841;BME280;51307;52.162;7.560;2024-01-30T11:36:25;102107.69;;;9.57;82.60
64841;BME280;51307;52.162;7.560;2024-01-30T11:38:51;102099.78;;;9.56;82.79
64841;BME280;51307;52.162;7.560;2024-01-30T11:41:17;102097.84;;;9.58;83.12
64841;BME280;51307;52.162;7.560;2024-01-30T11:43:51;102100.03;;;9.64;83.28
64841;BME280;51307;52.162;7.560;2024-01-30T11:46:17;102099.91;;;9.66;83.56
64841;BME280;51307;52.162;7.560;2024-01-30T11:48:42;102090.88;;;9.78;83.11
64841;BME280;51307;52.162;7.560;2024-01-30T11:51:08;102095.56;;;9.65;83.91
64841;BME280;51307;52.162;7.560;2024-01-30T11:53:34;102097.84;;;9.69;83.82
64841;BME280;51307;52.162;7.560;2024-01-30T11:55:59;102098.06;;;9.77;83.52
64841;BME280;51307;52.162;7.560;2024-01-30T11:58:25;102098.44;;;9.73;83.95
64841;BME280;51307;52.162;7.560;2024-01-30T12:00:57;102102.56;;;9.66;84.57
64841;BME280;51307;52.162;7.560;2024-01-30T12:03:23;102102.34;;;9.69;84.46
64841;BME280;51307;52.162;7.560;2024-01-30T12:05:55;102103.66;;;9.86;84.06
64841;BME280;51307;52.162;7.560;2024-01-30T12:08:21;102094.44;;;9.79;84.96
64841;BME280;51307;52.162;7.560;2024-01-30T12:10:55;102105.47;;;9.85;84.64
64841;BME280;51307;52.162;7.560;2024-01-30T12:13:21;102112.41;;;9.88;84.81
64841;BME280;51307;52.162;7.560;2024-01-30T12:15:46;102104.34;;;9.99;84.14
64841;BME280;51307;52.162;7.560;2024-01-30T12:18:12;102105.94;;;10.02;84.33
64841;BME280;51307;52.162;7.560;2024-01-30T12:20:37;102107.03;;;9.99;84.37
64841;BME280;51307;52.162;7.560;2024-01-30T12:23:03;102098.44;;;9.84;84.88
64841;BME280;51307;52.162;7.560;2024-01-30T12:25:29;102099.16;;;9.86;84.91
64841;BME280;51307;52.162;7.560;2024-01-30T12:27:54;102113.59;;;9.95;84.73
64841;BME280;51307;52.162;7.560;2024-01-30T12:30:20;102115.78;;;10.01;84.37
64841;BME280;51307;52.162;7.560;2024-01-30T12:32:48;102123.81;;;9.90;84.56
64841;BME280;51307;52.162;7.560;2024-01-30T12:35:19;102112.16;;;9.91;84.83
64841;BME280;51307;52.162;7.560;2024-01-30T12:37:46;102105.09;;;10.01;84.21
64841;BME280;51307;52.162;7.560;2024-01-30T12:40:14;102116.16;;;9.97;84.42
64841;BME280;51307;52.162;7.560;2024-01-30T12:42:41;102101.19;;;10.05;84.42
64841;BME280;51307;52.162;7.560;2024-01-30T12:45:11;102097.91;;;10.02;84.51
64841;BME280;51307;52.162;7.560;2024-01-30T12:47:37;102099.28;;;9.96;84.62
64841;BME280;51307;52.162;7.560;2024-01-30T12:50:03;102098.88;;;10.01;84.12
64841;BME280;51307;52.162;7.560;2024-01-30T12:52:29;102097.44;;;9.97;84.42
64841;BME280;51307;52.162;7.560;2024-01-30T12:54:54;102106.53;;;10.05;83.73